createdAt,value
2022-09-06T00:04:35.769Z,1.43
2022-09-06T00:09:37.474Z,1.63
2022-09-06T00:14:41.250Z,1.53
2022-09-06T00:19:42.900Z,1.40
2022-09-06T00:24:44.791Z,1.43
2022-09-06T00:29:48.146Z,1.60
2022-09-06T00:34:49.841Z,1.20
2022-09-06T00:39:52.014Z,1.10
2022-09-06T00:44:55.301Z,1.17
2022-09-06T00:50:00.230Z,1.20
2022-09-06T00:55:02.774Z,1.13
2022-09-06T01:00:08.758Z,1.10
2022-09-06T01:05:12.141Z,1.10
2022-09-06T01:10:30.632Z,1.17
2022-09-06T01:15:54.821Z,1.00
2022-09-06T01:21:12.571Z,0.87
2022-09-06T01:26:42.352Z,0.80
2022-09-06T01:31:51.015Z,0.80
2022-09-06T01:37:09.532Z,0.90
2022-09-06T01:42:15.934Z,0.83
2022-09-06T01:47:29.757Z,1.10
2022-09-06T01:52:35.885Z,0.77
2022-09-06T01:57:50.542Z,1.00
2022-09-06T02:03:06.513Z,0.77
2022-09-06T02:08:12.887Z,0.57
2022-09-06T02:13:17.109Z,0.70
2022-09-06T02:18:24.949Z,1.20
2022-09-06T02:23:38.452Z,0.50
2022-09-06T02:28:40.801Z,0.73
2022-09-06T02:33:46.544Z,0.60
2022-09-06T02:38:48.812Z,0.60
2022-09-06T02:43:50.841Z,0.73
2022-09-06T02:48:54.259Z,0.70
2022-09-06T02:53:56.353Z,0.67
2022-09-06T02:58:58.359Z,0.70
2022-09-06T03:04:02.229Z,0.87
2022-09-06T03:09:04.323Z,0.60
2022-09-06T03:14:06.005Z,0.50
2022-09-06T03:19:09.320Z,0.70
2022-09-06T03:24:11.336Z,0.63
2022-09-06T03:29:13.383Z,0.60
2022-09-06T03:34:16.617Z,0.80
2022-09-06T03:39:18.669Z,0.60
2022-09-06T03:44:20.865Z,0.40
2022-09-06T03:49:24.178Z,1.23
2022-09-06T03:54:26.008Z,0.67
2022-09-06T03:59:27.745Z,0.60
2022-09-06T04:04:30.723Z,0.60
2022-09-06T04:09:32.558Z,0.60
2022-09-06T04:14:34.244Z,0.67
2022-09-06T04:19:37.927Z,0.77
2022-09-06T04:24:40.096Z,0.70
2022-09-06T04:29:42.069Z,0.80
2022-09-06T04:34:45.115Z,1.00
2022-09-06T04:39:46.977Z,0.90
2022-09-06T04:44:49.219Z,0.83
2022-09-06T04:49:52.568Z,0.80
2022-09-06T04:54:54.295Z,1.00
2022-09-06T04:59:55.974Z,0.90
2022-09-06T05:04:59.390Z,0.93
2022-09-06T05:10:01.400Z,1.23
2022-09-06T05:15:03.726Z,1.10
2022-09-06T05:20:08.604Z,0.90
2022-09-06T05:25:11.085Z,0.80
2022-09-06T05:30:14.133Z,1.07
2022-09-06T05:35:17.726Z,0.97
2022-09-06T05:40:19.685Z,0.80
2022-09-06T05:45:25.198Z,0.60
2022-09-06T05:50:28.711Z,1.00
2022-09-06T05:55:30.411Z,0.90
2022-09-06T06:00:32.418Z,0.73
2022-09-06T06:05:35.482Z,1.00
2022-09-06T06:10:38.736Z,1.00
2022-09-06T06:15:40.823Z,0.90
2022-09-06T06:20:44.408Z,0.73
2022-09-06T06:25:46.472Z,1.00
2022-09-06T06:30:48.168Z,0.77
2022-09-06T06:36:03.099Z,1.20
2022-09-06T06:41:07.321Z,0.87
2022-09-06T06:46:11.191Z,1.10
2022-09-06T06:51:16.606Z,0.90
2022-09-06T06:56:20.455Z,0.70
2022-09-06T07:01:23.893Z,0.77
2022-09-06T07:11:50.672Z,1.00
2022-09-06T07:16:52.370Z,1.10
2022-09-06T07:21:56.017Z,1.00
2022-09-06T07:32:20.056Z,0.93
2022-09-06T07:37:23.358Z,0.97
2022-09-06T07:42:25.364Z,1.30
2022-09-06T07:58:08.727Z,0.90
2022-09-06T08:03:10.624Z,1.00
2022-09-06T08:13:37.224Z,1.50
2022-09-06T08:18:39.351Z,1.20
2022-09-06T08:23:46.553Z,1.30
2022-09-06T08:28:48.653Z,1.40
2022-09-06T08:33:52.466Z,1.30
2022-09-06T08:38:56.188Z,1.50
2022-09-06T08:49:25.945Z,1.33
2022-09-06T08:54:37.283Z,1.50
2022-09-06T08:59:41.346Z,1.40
2022-09-06T09:04:46.898Z,1.30
2022-09-06T09:09:52.605Z,2.20
2022-09-06T09:15:02.179Z,1.50
2022-09-06T09:20:04.595Z,1.40
2022-09-06T09:25:16.200Z,1.70
2022-09-06T09:35:41.927Z,1.43
2022-09-06T09:40:52.718Z,1.43
2022-09-06T09:46:16.610Z,1.80
2022-09-06T09:51:26.954Z,1.40
2022-09-06T09:56:37.097Z,1.70
2022-09-06T10:01:39.012Z,1.63
2022-09-06T10:12:05.427Z,2.00
2022-09-06T10:17:07.470Z,2.20
2022-09-06T10:22:28.092Z,2.08
2022-09-06T10:27:31.975Z,2.00
2022-09-06T10:32:41.323Z,2.00
2022-09-06T10:38:03.039Z,2.20
2022-09-06T10:43:15.076Z,1.92
2022-09-06T10:48:21.373Z,2.33
2022-09-06T10:53:34.815Z,2.38
2022-09-06T11:04:12.721Z,2.67
2022-09-06T11:09:22.867Z,1.92
2022-09-06T11:14:28.543Z,2.10
2022-09-06T11:19:38.412Z,2.55
2022-09-06T11:24:58.671Z,2.25
2022-09-06T11:30:04.404Z,1.80
2022-09-06T11:35:08.346Z,1.80
2022-09-06T11:40:32.644Z,2.17
2022-09-06T11:45:44.771Z,2.42
2022-09-06T11:51:01.430Z,2.60
2022-09-06T11:56:25.408Z,1.92
2022-09-06T12:01:38.305Z,2.15
2022-09-06T12:06:42.349Z,2.63
2022-09-06T12:11:44.655Z,2.03
2022-09-06T12:17:26.541Z,2.40
2022-09-06T12:23:02.928Z,2.70
2022-09-06T12:28:09.605Z,2.40
2022-09-06T12:33:17.270Z,2.95
2022-09-06T12:38:25.126Z,2.13
2022-09-06T12:43:27.285Z,2.60
2022-09-06T12:48:31.954Z,2.72
2022-09-06T12:53:36.375Z,2.38
2022-09-06T12:58:38.548Z,2.15
2022-09-06T13:03:43.876Z,2.80
2022-09-06T13:08:49.656Z,2.58
2022-09-06T13:13:53.701Z,2.38
2022-09-06T13:19:10.399Z,2.13
2022-09-06T13:24:22.007Z,2.42
2022-09-06T13:29:26.187Z,2.78
2022-09-06T13:34:32.268Z,2.28
2022-09-06T13:39:38.016Z,2.60
2022-09-06T13:44:41.163Z,2.30
2022-09-06T13:49:43.297Z,2.40
2022-09-06T13:54:46.360Z,2.22
2022-09-06T13:59:48.098Z,2.40
2022-09-06T14:04:50.086Z,2.67
2022-09-06T14:09:53.738Z,2.67
2022-09-06T14:14:55.495Z,2.70
2022-09-06T14:19:57.770Z,2.17
2022-09-06T14:25:01.073Z,2.55
2022-09-06T14:30:03.820Z,2.50
2022-09-06T14:35:06.505Z,2.30
2022-09-06T14:40:10.790Z,2.50
2022-09-06T14:45:12.568Z,2.20
2022-09-06T14:50:14.321Z,2.30
2022-09-06T14:55:17.753Z,2.10
2022-09-06T15:00:19.820Z,2.10
2022-09-06T15:05:21.863Z,2.75
2022-09-06T15:10:25.198Z,2.90
2022-09-06T15:15:26.958Z,3.00
2022-09-06T15:20:30.015Z,2.28
2022-09-06T15:25:33.429Z,2.42
2022-09-06T15:30:38.063Z,2.30
2022-09-06T15:35:40.120Z,2.42
2022-09-06T15:40:43.623Z,2.40
2022-09-06T15:45:47.800Z,2.45
2022-09-06T15:50:51.539Z,2.10
2022-09-06T15:56:00.281Z,2.42
2022-09-06T16:01:05.931Z,2.28
2022-09-06T16:06:26.143Z,2.42
2022-09-06T16:11:31.395Z,4.47
2022-09-06T16:16:33.798Z,2.42
2022-09-06T16:21:38.006Z,2.95
2022-09-06T16:26:42.805Z,2.40
2022-09-06T16:31:45.602Z,2.10
2022-09-06T16:36:47.905Z,3.03
2022-09-06T16:41:51.042Z,2.33
2022-09-06T16:46:53.281Z,2.60
2022-09-06T16:51:55.479Z,2.17
2022-09-06T16:56:58.847Z,2.65
2022-09-06T17:02:01.210Z,1.90
2022-09-06T17:07:03.087Z,2.60
2022-09-06T17:12:07.015Z,2.25
2022-09-06T17:17:08.941Z,2.35
2022-09-06T17:22:12.655Z,2.60
2022-09-06T17:27:15.976Z,2.38
2022-09-06T17:32:17.777Z,2.40
2022-09-06T17:37:19.707Z,2.10
2022-09-06T17:42:23.143Z,2.30
2022-09-06T17:47:25.209Z,2.10
2022-09-06T17:52:27.338Z,2.00
2022-09-06T17:57:31.174Z,2.20
2022-09-06T18:02:32.872Z,2.20
2022-09-06T18:07:34.600Z,2.60
2022-09-06T18:12:38.326Z,2.20
2022-09-06T18:17:40.238Z,2.10
2022-09-06T18:22:42.216Z,2.40
2022-09-06T18:27:45.559Z,2.03
2022-09-06T18:32:47.771Z,2.50
2022-09-06T18:37:49.771Z,2.00
2022-09-06T18:42:52.967Z,2.33
2022-09-06T18:47:55.217Z,2.07
2022-09-06T18:52:56.926Z,2.73
2022-09-06T18:58:00.305Z,1.87
2022-09-06T19:03:02.088Z,1.70
2022-09-06T19:08:04.687Z,1.97
2022-09-06T19:13:08.405Z,1.83
2022-09-06T19:18:10.495Z,1.60
2022-09-06T19:23:12.468Z,1.83
2022-09-06T19:28:15.776Z,2.17
2022-09-06T19:33:18.772Z,1.97
2022-09-06T19:38:20.767Z,1.90
2022-09-06T19:43:24.023Z,1.80
2022-09-06T19:48:25.906Z,1.77
2022-09-06T19:53:28.284Z,1.87
2022-09-06T19:58:32.762Z,1.90
2022-09-06T20:03:36.183Z,1.83
2022-09-06T20:08:39.929Z,1.80
2022-09-06T20:13:44.606Z,1.50
2022-09-06T20:18:47.020Z,2.30
2022-09-06T20:23:49.826Z,2.10
2022-09-06T20:28:55.692Z,2.20
2022-09-06T20:34:01.656Z,1.83
2022-09-06T20:39:04.404Z,2.23
2022-09-06T20:44:07.838Z,1.83
2022-09-06T20:49:09.529Z,2.17
2022-09-06T20:54:11.525Z,2.17
2022-09-06T20:59:15.067Z,2.10
2022-09-06T21:04:18.043Z,1.80
2022-09-06T21:09:20.133Z,1.37
2022-09-06T21:14:23.624Z,1.70
2022-09-06T21:19:25.762Z,1.63
2022-09-06T21:24:27.811Z,1.70
2022-09-06T21:29:30.885Z,1.70
2022-09-06T21:34:32.922Z,1.90
2022-09-06T21:39:35.292Z,1.97
2022-09-06T21:44:38.404Z,1.90
2022-09-06T21:49:40.418Z,1.80
2022-09-06T21:54:42.474Z,2.07
2022-09-06T21:59:45.902Z,2.20
2022-09-06T22:04:47.947Z,2.50
2022-09-06T22:09:50.088Z,1.60
2022-09-06T22:14:53.507Z,1.90
2022-09-06T22:19:55.535Z,1.80
2022-09-06T22:24:57.538Z,1.93
2022-09-06T22:30:01.122Z,1.57
2022-09-06T22:35:03.807Z,1.70
2022-09-06T22:40:07.260Z,1.60
2022-09-06T22:45:11.269Z,1.80
2022-09-06T22:50:13.426Z,2.17
2022-09-06T22:55:15.343Z,1.87
2022-09-06T23:00:18.723Z,1.70
2022-09-06T23:05:21.256Z,1.73
2022-09-06T23:10:23.102Z,2.00
2022-09-06T23:15:26.584Z,1.70
2022-09-06T23:20:28.255Z,1.70
2022-09-06T23:25:30.561Z,2.13
2022-09-06T23:30:36.843Z,1.60
2022-09-06T23:35:38.601Z,1.60
2022-09-06T23:40:40.804Z,2.13
2022-09-06T23:45:44.371Z,2.37
2022-09-06T23:50:46.918Z,1.73
2022-09-06T23:55:48.976Z,1.90
